Time;durP1;ratioP1;P1;durP2;ratioP2;P2;SDS_P1;SDS_P2;PMS_P1;PMS_P2;Temp;Humidity;BMP_temperature;BMP_pressure;BME280_temperature;BME280_humidity;BME280_pressure;Samples;Min_cycle;Max_cycle;Signal;HPM_P1;HPM_P2
2023/10/26 00:00:28;;;;;;;30.50;15.90;;;;;;;14.58;100.00;92004.19;5069998;28;20243;-78
2023/10/26 00:02:54;;;;;;;32.27;15.20;;;;;;;14.32;100.00;92007.69;5068716;28;20221;-78
2023/10/26 00:05:19;;;;;;;25.10;14.83;;;;;;;14.04;100.00;91993.41;5074805;28;20219;-78
2023/10/26 00:07:45;;;;;;;36.90;14.87;;;;;;;14.32;100.00;92005.06;5058357;28;20229;-78
2023/10/26 00:10:10;;;;;;;25.83;13.83;;;;;;;14.24;100.00;92013.72;5040441;28;20186;-76
2023/10/26 00:12:36;;;;;;;36.33;13.77;;;;;;;14.24;100.00;92011.09;5043063;28;20293;-79
2023/10/26 00:15:01;;;;;;;21.40;11.90;;;;;;;14.33;100.00;91998.72;5042379;28;20197;-78
2023/10/26 00:17:27;;;;;;;22.07;12.30;;;;;;;14.30;100.00;91985.47;5032612;28;20231;-78
2023/10/26 00:19:52;;;;;;;16.57;12.87;;;;;;;14.33;100.00;92006.59;5035751;28;20186;-79
2023/10/26 00:22:19;;;;;;;12.13;10.70;;;;;;;14.61;100.00;91996.44;5038743;28;20245;-78
2023/10/26 00:24:44;;;;;;;17.77;11.43;;;;;;;14.59;100.00;92003.84;5044956;28;20195;-78
2023/10/26 00:27:10;;;;;;;11.97;10.73;;;;;;;14.89;100.00;92002.00;5042491;28;20237;-81
2023/10/26 00:29:35;;;;;;;13.03;10.77;;;;;;;15.14;100.00;91998.41;5045430;28;20198;-79
2023/10/26 00:32:00;;;;;;;11.03;9.90;;;;;;;15.27;100.00;91992.91;5042288;28;20249;-78
2023/10/26 00:34:26;;;;;;;13.50;9.60;;;;;;;15.24;100.00;91998.03;5040050;28;20233;-80
2023/10/26 00:36:51;;;;;;;11.03;9.93;;;;;;;15.40;100.00;92001.66;5048569;28;20244;-77
2023/10/26 00:39:16;;;;;;;15.27;9.60;;;;;;;15.56;100.00;92006.00;5049378;28;20193;-79
2023/10/26 00:41:42;;;;;;;11.20;10.20;;;;;;;16.14;97.32;91983.13;5048936;28;20281;-79
2023/10/26 00:44:07;;;;;;;10.30;9.47;;;;;;;16.43;94.62;91994.25;5046158;28;20194;-79
2023/10/26 00:46:35;;;;;;;10.80;9.97;;;;;;;16.54;95.02;91987.47;5047340;28;20182;-78
2023/10/26 00:49:01;;;;;;;9.43;8.83;;;;;;;16.48;94.03;91988.03;5045059;28;20186;-79
2023/10/26 00:51:26;;;;;;;10.27;9.20;;;;;;;16.41;95.23;91991.16;5053302;28;20206;-74
2023/10/26 00:53:52;;;;;;;10.57;9.50;;;;;;;16.39;96.78;91997.88;5045868;28;20206;-78
2023/10/26 00:56:21;;;;;;;10.00;9.00;;;;;;;16.35;96.31;92007.50;5044675;28;20201;-79
2023/10/26 00:58:47;;;;;;;10.97;10.07;;;;;;;16.24;95.76;91988.75;5043821;28;20225;-79
2023/10/26 01:01:15;;;;;;;10.10;9.50;;;;;;;16.51;92.51;91988.16;5042631;28;20559;-79
2023/10/26 01:03:40;;;;;;;10.33;9.53;;;;;;;16.55;92.37;91981.09;5070900;28;20316;-77
2023/10/26 01:06:08;;;;;;;10.37;9.60;;;;;;;16.44;95.02;91998.44;5073198;28;20231;-76
2023/10/26 01:08:34;;;;;;;10.13;9.07;;;;;;;16.29;95.63;91999.06;5072875;28;20224;-79
2023/10/26 01:11:01;;;;;;;12.87;8.40;;;;;;;16.21;94.57;91973.59;5073489;28;20185;-79
2023/10/26 01:13:29;;;;;;;11.80;10.70;;;;;;;16.27;96.66;91984.66;5067832;28;20523;-78
2023/10/26 01:15:55;;;;;;;12.20;10.07;;;;;;;16.16;100.00;91991.47;5054002;28;20249;-78
2023/10/26 01:18:20;;;;;;;9.97;9.10;;;;;;;16.21;98.78;91978.84;5056383;28;20228;-79
2023/10/26 01:20:46;;;;;;;10.80;9.93;;;;;;;16.06;96.62;91945.28;5072737;28;20185;-78
2023/10/26 01:23:11;;;;;;;10.63;9.53;;;;;;;16.30;94.95;91984.00;5069791;28;20222;-79
2023/10/26 01:25:37;;;;;;;9.57;9.07;;;;;;;16.60;90.37;91978.25;5068789;28;20197;-75
2023/10/26 01:28:02;;;;;;;12.33;9.10;;;;;;;16.52;93.03;91981.00;5054288;28;20234;-78
2023/10/26 01:30:28;;;;;;;11.33;8.73;;;;;;;16.35;93.53;91984.59;5052205;28;20189;-81
2023/10/26 01:32:53;;;;;;;15.60;10.63;;;;;;;16.28;96.05;91971.16;5046497;28;20231;-78
2023/10/26 01:35:18;;;;;;;12.07;10.40;;;;;;;16.30;96.75;91981.38;5042370;28;20221;-78
2023/10/26 01:37:44;;;;;;;12.37;9.73;;;;;;;16.28;94.01;91988.88;5052327;28;20241;-77
2023/10/26 01:40:10;;;;;;;21.13;11.37;;;;;;;15.94;100.00;91987.34;5053181;28;20249;-79
2023/10/26 01:42:35;;;;;;;22.03;13.23;;;;;;;15.19;100.00;91987.72;5052075;28;20740;-77
2023/10/26 01:45:02;;;;;;;22.53;14.47;;;;;;;15.03;100.00;91999.88;5045174;28;20186;-78
2023/10/26 01:47:27;;;;;;;21.13;13.33;;;;;;;15.18;100.00;91968.53;5051968;28;20296;-78
2023/10/26 01:49:52;;;;;;;27.27;14.30;;;;;;;15.02;100.00;91969.44;5048818;28;20194;-78
2023/10/26 01:52:18;;;;;;;21.00;12.63;;;;;;;15.15;100.00;91989.44;5051457;28;20222;-78
2023/10/26 01:54:43;;;;;;;24.10;14.03;;;;;;;14.91;100.00;91987.44;5052421;28;20261;-78
2023/10/26 01:57:09;;;;;;;22.67;15.00;;;;;;;14.34;100.00;91967.97;5051983;28;20224;-77
2023/10/26 01:59:34;;;;;;;29.23;15.67;;;;;;;14.52;100.00;91979.97;5049283;28;20185;-77
2023/10/26 02:01:59;;;;;;;25.50;14.20;;;;;;;14.66;100.00;91987.59;5058698;28;20290;-77
2023/10/26 02:04:25;;;;;;;22.57;15.47;;;;;;;14.46;100.00;91970.69;5040946;28;20182;-76
2023/10/26 02:06:50;;;;;;;26.00;15.63;;;;;;;14.55;100.00;92010.06;5045874;28;20230;-79
2023/10/26 02:09:15;;;;;;;22.70;15.80;;;;;;;14.60;100.00;91976.50;5046177;28;20194;-79
2023/10/26 02:11:41;;;;;;;19.60;14.27;;;;;;;14.86;100.00;91961.34;5045088;28;20915;-77
2023/10/26 02:14:06;;;;;;;23.50;12.50;;;;;;;14.86;100.00;91973.72;5051618;28;20236;-78
2023/10/26 02:16:31;;;;;;;25.77;13.20;;;;;;;14.82;100.00;91996.47;5039502;28;20187;-74
2023/10/26 02:18:57;;;;;;;23.03;13.00;;;;;;;14.94;100.00;91968.38;5071756;28;20178;-78
2023/10/26 02:21:22;;;;;;;25.63;12.53;;;;;;;14.75;100.00;91959.41;5072067;28;20215;-78
2023/10/26 02:23:48;;;;;;;17.20;12.13;;;;;;;14.75;100.00;91990.94;5070412;28;20229;-77
2023/10/26 02:26:13;;;;;;;21.23;12.80;;;;;;;14.27;100.00;91992.09;5071457;28;20826;-77
2023/10/26 02:28:39;;;;;;;18.33;11.60;;;;;;;14.30;100.00;91978.34;5054030;28;20221;-78
2023/10/26 02:31:04;;;;;;;16.77;12.50;;;;;;;14.26;100.00;91966.94;5063139;28;20177;-78
2023/10/26 02:33:30;;;;;;;12.47;11.13;;;;;;;14.37;100.00;91975.22;5066311;28;20225;-78
2023/10/26 02:35:55;;;;;;;21.07;11.03;;;;;;;14.24;100.00;91958.59;5072350;28;20217;-78
2023/10/26 02:38:20;;;;;;;18.27;11.23;;;;;;;14.36;100.00;91977.09;5065693;28;20328;-77
2023/10/26 02:40:46;;;;;;;21.80;11.07;;;;;;;14.59;100.00;91976.81;5062817;28;20198;-78
2023/10/26 02:43:11;;;;;;;14.87;10.93;;;;;;;14.36;100.00;91958.72;5068217;28;20221;-78
2023/10/26 02:45:37;;;;;;;16.17;11.03;;;;;;;14.10;100.00;91965.88;5085549;28;20185;-78
2023/10/26 02:48:05;;;;;;;20.73;10.60;;;;;;;14.19;100.00;91948.25;5069902;28;20227;-77
2023/10/26 02:50:30;;;;;;;14.27;10.97;;;;;;;14.31;100.00;91963.38;5071245;28;20189;-78
2023/10/26 02:52:56;;;;;;;22.70;10.57;;;;;;;14.24;100.00;91963.84;5070289;28;20230;-78
2023/10/26 02:55:23;;;;;;;20.13;11.37;;;;;;;13.99;100.00;91975.19;5069950;28;20192;-78
2023/10/26 02:57:50;;;;;;;14.83;10.93;;;;;;;14.15;100.00;91980.69;5065590;28;20236;-78
2023/10/26 03:00:16;;;;;;;19.50;10.80;;;;;;;14.32;100.00;91973.56;5069566;28;20186;-78
2023/10/26 03:02:41;;;;;;;14.13;10.23;;;;;;;14.22;100.00;91994.13;5070342;28;20895;-78
2023/10/26 03:05:08;;;;;;;16.23;10.47;;;;;;;14.25;100.00;91998.75;5057794;28;20186;-78
2023/10/26 03:07:34;;;;;;;15.17;10.20;;;;;;;14.19;100.00;92006.00;5070685;28;20221;-78
2023/10/26 03:09:59;;;;;;;11.13;9.60;;;;;;;14.28;100.00;91977.91;5066927;28;20208;-77
2023/10/26 03:12:25;;;;;;;16.10;10.03;;;;;;;14.17;100.00;91979.31;5063130;28;20225;-76
2023/10/26 03:14:50;;;;;;;16.70;10.47;;;;;;;13.89;100.00;91995.75;5067349;28;20189;-78
2023/10/26 03:17:15;;;;;;;18.90;11.10;;;;;;;13.74;100.00;92010.13;5069822;28;20228;-78
2023/10/26 03:19:42;;;;;;;20.87;11.63;;;;;;;14.01;100.00;91973.03;5063291;28;20198;-78
2023/10/26 03:22:09;;;;;;;17.93;10.73;;;;;;;13.71;100.00;92004.75;5059008;28;20221;-79
2023/10/26 03:24:35;;;;;;;18.87;10.23;;;;;;;13.90;100.00;91992.81;5069238;28;20242;-78
2023/10/26 03:27:00;;;;;;;12.00;10.47;;;;;;;13.85;100.00;91995.59;5063230;28;21325;-78
2023/10/26 03:29:26;;;;;;;14.47;11.57;;;;;;;13.98;100.00;91973.66;5062536;28;20209;-78
2023/10/26 03:31:51;;;;;;;21.83;10.00;;;;;;;13.83;100.00;91981.28;5069142;28;20280;-79
2023/10/26 03:34:17;;;;;;;17.30;10.17;;;;;;;13.69;100.00;91986.72;5065976;28;20225;-85
2023/10/26 03:36:42;;;;;;;17.87;10.93;;;;;;;13.81;100.00;91960.59;5068915;28;20975;-84
2023/10/26 03:39:07;;;;;;;17.87;9.87;;;;;;;13.93;100.00;91979.06;5069960;28;20180;-88
2023/10/26 03:41:33;;;;;;;14.00;10.87;;;;;;;13.59;100.00;91986.25;5073863;28;20199;-84
2023/10/26 03:43:58;;;;;;;20.27;10.33;;;;;;;13.77;100.00;91978.06;5070426;28;20188;-88
2023/10/26 03:46:24;;;;;;;15.43;11.67;;;;;;;13.61;100.00;91974.38;5069783;28;20238;-90
2023/10/26 03:48:50;;;;;;;13.20;10.97;;;;;;;13.32;100.00;91944.66;5073749;28;20213;-84
2023/10/26 03:51:16;;;;;;;18.07;9.70;;;;;;;13.68;100.00;91953.69;5081696;28;20181;-84
2023/10/26 03:53:41;;;;;;;16.90;10.17;;;;;;;13.72;100.00;91949.34;5064769;28;20244;-88
2023/10/26 03:56:06;;;;;;;17.03;10.77;;;;;;;13.78;100.00;91942.84;5070122;28;20223;-84
2023/10/26 03:58:32;;;;;;;15.90;9.53;;;;;;;13.98;100.00;91942.16;5069315;28;20228;-91
2023/10/26 04:00:57;;;;;;;18.17;10.60;;;;;;;13.90;100.00;91934.34;5069169;28;20188;-81
2023/10/26 04:03:23;;;;;;;14.40;10.40;;;;;;;13.81;100.00;91908.13;5068504;28;20235;-80
2023/10/26 04:05:49;;;;;;;15.77;10.40;;;;;;;13.92;100.00;91948.69;5072769;28;20180;-81
2023/10/26 04:08:14;;;;;;;15.50;11.33;;;;;;;13.94;100.00;91949.13;5052822;28;20294;-82
2023/10/26 04:10:41;;;;;;;15.13;10.93;;;;;;;13.75;100.00;91943.47;5054405;28;20201;-84
2023/10/26 04:13:07;;;;;;;15.67;10.80;;;;;;;14.08;100.00;91960.22;5059492;28;20230;-81
2023/10/26 04:15:32;;;;;;;16.37;10.17;;;;;;;13.96;100.00;91952.19;5069024;28;20206;-78
2023/10/26 04:17:58;;;;;;;12.93;10.40;;;;;;;14.02;100.00;91948.31;5068981;28;20225;-83
2023/10/26 04:20:23;;;;;;;16.97;10.53;;;;;;;13.83;100.00;91955.81;5065720;28;20197;-88
2023/10/26 04:22:50;;;;;;;13.47;11.00;;;;;;;13.77;100.00;91961.53;5068937;28;20229;-86
2023/10/26 04:25:15;;;;;;;11.57;10.37;;;;;;;13.84;100.00;91967.84;5069257;28;20190;-91
2023/10/26 04:27:40;;;;;;;16.37;11.27;;;;;;;14.27;100.00;91959.84;5065268;28;20231;-92
2023/10/26 04:30:07;;;;;;;18.33;11.23;;;;;;;14.35;100.00;91959.78;5069890;28;20237;-86
2023/10/26 04:32:32;;;;;;;13.73;10.93;;;;;;;14.45;100.00;91925.28;5067484;28;20225;-83
2023/10/26 04:35:02;;;;;;;19.87;10.53;;;;;;;14.28;100.00;91956.91;5063380;28;20221;-82
2023/10/26 04:37:27;;;;;;;22.63;11.47;;;;;;;14.47;100.00;91959.13;5068663;28;20232;-76
2023/10/26 04:39:53;;;;;;;17.17;12.00;;;;;;;14.33;100.00;91961.94;5068855;28;20177;-77
2023/10/26 04:42:18;;;;;;;16.13;10.77;;;;;;;14.32;100.00;91963.03;5069042;28;20248;-76
2023/10/26 04:44:43;;;;;;;10.23;9.23;;;;;;;14.56;100.00;91954.59;5065000;28;20212;-75
2023/10/26 04:47:09;;;;;;;17.83;10.70;;;;;;;14.29;100.00;91953.19;5060888;28;20285;-76
2023/10/26 04:49:35;;;;;;;14.60;11.37;;;;;;;14.39;100.00;91947.59;5064368;28;20174;-75
2023/10/26 04:52:00;;;;;;;11.53;10.53;;;;;;;14.33;100.00;91948.06;5056321;28;20225;-76
2023/10/26 04:54:29;;;;;;;12.23;11.03;;;;;;;14.58;100.00;91936.66;5067688;28;20199;-75
2023/10/26 04:56:54;;;;;;;16.57;11.77;;;;;;;14.97;100.00;91952.00;5067067;28;20218;-77
2023/10/26 04:59:20;;;;;;;14.37;11.20;;;;;;;15.12;100.00;91943.53;5064449;28;20268;-75
2023/10/26 05:01:45;;;;;;;16.73;11.87;;;;;;;15.08;100.00;91955.75;5064965;28;20392;-77
2023/10/26 05:04:10;;;;;;;12.57;11.33;;;;;;;15.45;96.86;91962.00;5069322;28;20177;-82
2023/10/26 05:06:36;;;;;;;15.87;10.90;;;;;;;15.67;93.40;91956.38;5056051;28;20194;-79
2023/10/26 05:09:03;;;;;;;13.43;10.60;;;;;;;16.44;87.83;91963.38;5073390;28;20193;-79
2023/10/26 05:11:29;;;;;;;12.53;10.77;;;;;;;16.20;91.55;91961.53;5058721;28;20194;-79
2023/10/26 05:13:54;;;;;;;10.07;9.20;;;;;;;16.08;91.56;91981.81;5070968;28;20209;-80
2023/10/26 05:16:20;;;;;;;11.33;10.20;;;;;;;16.05;91.93;91970.06;5068722;28;20178;-80
2023/10/26 05:18:45;;;;;;;18.90;12.30;;;;;;;16.05;96.73;91986.63;5065044;28;20229;-80
2023/10/26 05:21:10;;;;;;;15.67;11.00;;;;;;;15.74;100.00;91999.50;5060433;28;20162;-80
2023/10/26 05:23:38;;;;;;;12.87;9.70;;;;;;;15.64;100.00;91997.25;5064540;28;20594;-80
2023/10/26 05:26:03;;;;;;;14.93;10.00;;;;;;;15.31;100.00;91993.03;5068003;28;20254;-79
2023/10/26 05:28:29;;;;;;;14.27;12.93;;;;;;;15.75;93.02;91987.09;5064104;28;20209;-80
2023/10/26 05:30:54;;;;;;;11.47;10.30;;;;;;;16.21;89.63;91992.03;5063589;28;20185;-80
2023/10/26 05:33:19;;;;;;;13.57;10.07;;;;;;;16.31;90.16;92002.13;5056246;28;20255;-79
2023/10/26 05:35:45;;;;;;;14.50;9.53;;;;;;;16.56;86.56;91995.81;5062004;28;20225;-79
2023/10/26 05:38:10;;;;;;;11.70;9.77;;;;;;;16.67;86.94;92001.44;5059392;28;20217;-80
2023/10/26 05:40:36;;;;;;;10.83;10.03;;;;;;;16.81;86.38;91993.97;5066516;28;20193;-79
2023/10/26 05:43:02;;;;;;;15.80;9.73;;;;;;;16.92;84.30;92008.97;5058612;28;20248;-84
2023/10/26 05:45:29;;;;;;;10.23;9.27;;;;;;;17.07;83.86;92008.31;5071571;28;20194;-80
2023/10/26 05:47:55;;;;;;;12.00;9.87;;;;;;;17.20;83.49;92015.09;5071229;28;20225;-81
2023/10/26 05:50:21;;;;;;;13.83;9.20;;;;;;;17.08;81.57;92014.34;5071405;28;20201;-81
2023/10/26 05:52:47;;;;;;;15.60;9.60;;;;;;;17.35;82.51;92017.03;5070582;28;20234;-81
2023/10/26 05:55:13;;;;;;;12.47;9.23;;;;;;;17.25;82.82;92022.78;5071438;28;20182;-81
2023/10/26 05:57:38;;;;;;;10.90;9.13;;;;;;;17.41;78.94;92021.00;5070648;28;20787;-81
2023/10/26 06:00:09;;;;;;;11.33;10.07;;;;;;;17.51;82.80;92039.03;5071486;28;20193;-81
2023/10/26 06:02:35;;;;;;;14.97;9.03;;;;;;;17.44;82.67;92041.47;5070442;28;20245;-79
2023/10/26 06:05:00;;;;;;;12.13;10.60;;;;;;;17.35;86.85;92046.06;5069858;28;20181;-87
2023/10/26 06:07:26;;;;;;;15.83;9.70;;;;;;;17.25;89.70;92048.41;5072799;28;20383;-85
2023/10/26 06:09:51;;;;;;;13.63;10.30;;;;;;;16.13;99.10;92050.03;5068662;28;20181;-84
2023/10/26 06:12:17;;;;;;;11.03;9.83;;;;;;;16.10;100.00;92043.56;5070390;28;20264;-83
2023/10/26 06:14:43;;;;;;;14.93;9.53;;;;;;;15.59;100.00;92041.41;5068803;28;20922;-82
2023/10/26 06:17:10;;;;;;;11.83;10.70;;;;;;;15.66;100.00;92042.44;5067474;28;20225;-82
2023/10/26 06:19:35;;;;;;;11.73;10.03;;;;;;;15.90;100.00;92047.03;5071412;28;20197;-83
2023/10/26 06:22:00;;;;;;;17.63;9.97;;;;;;;15.96;100.00;92043.09;5074168;28;20232;-83
2023/10/26 06:24:26;;;;;;;14.93;11.73;;;;;;;15.84;100.00;92022.75;5070998;28;20244;-83
2023/10/26 06:26:52;;;;;;;22.03;12.30;;;;;;;15.64;100.00;92033.34;5070959;28;20263;-84
2023/10/26 06:29:17;;;;;;;13.13;11.80;;;;;;;15.66;100.00;92044.28;5072550;28;20204;-82
2023/10/26 06:31:44;;;;;;;17.23;10.37;;;;;;;15.69;100.00;92004.16;5070542;28;20193;-84
2023/10/26 06:34:09;;;;;;;14.43;11.53;;;;;;;16.04;100.00;92063.31;5070735;28;20221;-83
2023/10/26 06:36:35;;;;;;;16.60;9.67;;;;;;;16.30;100.00;92024.31;5073080;28;20886;-81
2023/10/26 06:39:02;;;;;;;15.33;11.53;;;;;;;16.27;100.00;92048.66;5075259;28;20335;-81
2023/10/26 06:41:27;;;;;;;20.10;10.23;;;;;;;16.27;100.00;92035.50;5069206;28;20252;-79
2023/10/26 06:43:53;;;;;;;15.50;10.77;;;;;;;16.29;100.00;92048.34;5067375;28;20193;-84
2023/10/26 06:46:19;;;;;;;17.73;8.97;;;;;;;16.68;97.12;92042.50;5068047;28;20260;-84
2023/10/26 06:48:44;;;;;;;13.30;10.37;;;;;;;16.09;100.00;92060.47;5070266;28;20227;-82
2023/10/26 06:51:10;;;;;;;13.27;10.60;;;;;;;16.48;99.40;92057.31;5073770;28;20189;-83
2023/10/26 06:53:35;;;;;;;13.87;10.13;;;;;;;16.43;98.94;92061.97;5073584;28;20271;-90
2023/10/26 06:56:00;;;;;;;15.03;11.07;;;;;;;16.44;100.00;92060.88;5061728;28;20185;-88
2023/10/26 06:58:27;;;;;;;13.43;10.43;;;;;;;16.70;99.01;92077.97;5070574;28;20254;-79
2023/10/26 07:00:52;;;;;;;16.07;9.33;;;;;;;16.63;92.29;92042.72;5076858;28;20185;-87
2023/10/26 07:03:18;;;;;;;11.60;10.40;;;;;;;17.25;81.98;92049.19;5069231;28;20240;-87
2023/10/26 07:05:44;;;;;;;12.23;9.37;;;;;;;17.36;81.35;92060.81;5072992;28;20185;-89
2023/10/26 07:08:10;;;;;;;14.73;9.80;;;;;;;17.71;77.33;92045.25;5069573;28;20898;-88
2023/10/26 07:10:38;;;;;;;16.00;10.00;;;;;;;17.76;76.60;92049.53;5071203;28;20239;-85
2023/10/26 07:13:04;;;;;;;10.20;9.10;;;;;;;17.95;79.64;92055.72;5069859;28;20229;-89
2023/10/26 07:15:30;;;;;;;12.27;10.37;;;;;;;17.90;80.84;92057.84;5067636;28;20249;-89
2023/10/26 07:17:55;;;;;;;13.20;10.17;;;;;;;17.47;86.21;92063.78;5067005;28;20251;-91
2023/10/26 07:20:21;;;;;;;13.60;10.57;;;;;;;17.55;85.23;92063.66;5070721;28;20179;-87
2023/10/26 07:22:47;;;;;;;14.40;11.00;;;;;;;17.65;86.22;92056.38;5064576;28;20233;-83
2023/10/26 07:25:12;;;;;;;17.27;11.20;;;;;;;17.77;85.57;92057.13;5066953;28;20182;-85
2023/10/26 07:27:38;;;;;;;13.83;11.00;;;;;;;17.62;85.71;92057.06;5068517;28;20229;-84
2023/10/26 07:30:05;;;;;;;19.40;10.10;;;;;;;16.99;90.42;92067.22;5062296;28;20186;-86
2023/10/26 07:32:30;;;;;;;17.83;11.53;;;;;;;17.27;90.14;92052.25;5048739;28;20219;-84
2023/10/26 07:34:56;;;;;;;20.97;9.90;;;;;;;16.94;92.66;92030.53;5061599;28;20241;-83
2023/10/26 07:37:22;;;;;;;19.53;10.40;;;;;;;16.70;93.53;92037.69;5062636;28;20224;-82
2023/10/26 07:39:47;;;;;;;12.87;10.13;;;;;;;16.98;93.33;92034.03;5052906;28;20186;-82
2023/10/26 07:42:13;;;;;;;17.60;10.27;;;;;;;17.39;91.67;92041.69;5059904;28;20221;-82
2023/10/26 07:44:38;;;;;;;21.47;10.70;;;;;;;17.46;92.01;92026.06;5060445;28;20197;-82
2023/10/26 07:47:04;;;;;;;15.23;11.17;;;;;;;17.56;91.20;92035.38;5046523;28;20213;-85
2023/10/26 07:49:31;;;;;;;16.50;10.63;;;;;;;17.42;94.06;92038.38;5059759;28;20181;-84
2023/10/26 07:51:56;;;;;;;22.37;11.47;;;;;;;17.55;92.54;92041.78;5075436;28;20229;-83
2023/10/26 07:54:21;;;;;;;18.30;11.47;;;;;;;17.13;92.30;92025.47;5078951;28;20296;-85
2023/10/26 07:56:47;;;;;;;20.20;10.83;;;;;;;17.51;91.87;92028.47;5064024;28;20247;-84
2023/10/26 07:59:12;;;;;;;13.97;10.57;;;;;;;17.47;92.29;92024.19;5070687;28;20224;-83
2023/10/26 08:01:38;;;;;;;19.47;11.37;;;;;;;16.67;98.59;92019.88;5066653;28;20254;-81
2023/10/26 08:04:03;;;;;;;21.97;11.10;;;;;;;17.27;96.30;92036.44;5071111;28;20280;-88
2023/10/26 08:06:29;;;;;;;24.20;11.80;;;;;;;16.90;98.88;92036.78;5068954;28;20188;-85
2023/10/26 08:08:54;;;;;;;18.17;11.10;;;;;;;17.02;97.86;92027.00;5069275;28;20197;-79
2023/10/26 08:11:19;;;;;;;18.67;11.47;;;;;;;16.93;97.97;92025.59;5069584;28;20192;-82
2023/10/26 08:13:45;;;;;;;17.87;11.30;;;;;;;17.52;94.05;92022.09;5068715;28;20237;-82
2023/10/26 08:16:11;;;;;;;15.07;11.37;;;;;;;17.67;89.18;92017.19;5067907;28;20185;-83
2023/10/26 08:18:36;;;;;;;22.47;11.57;;;;;;;17.43;93.14;92021.41;5068159;28;20252;-81
2023/10/26 08:21:03;;;;;;;21.27;11.03;;;;;;;17.33;93.82;92019.25;5069137;28;20188;-82
2023/10/26 08:23:31;;;;;;;13.00;11.63;;;;;;;17.81;91.33;92013.06;5067533;28;20232;-81
2023/10/26 08:25:56;;;;;;;18.80;11.00;;;;;;;17.70;92.53;92014.66;5067792;28;20196;-80
2023/10/26 08:28:22;;;;;;;26.03;12.40;;;;;;;17.33;95.48;92013.97;5071150;28;20233;-80
2023/10/26 08:30:48;;;;;;;20.87;12.40;;;;;;;17.77;89.51;92008.81;5084275;28;20184;-80
2023/10/26 08:33:14;;;;;;;18.90;11.60;;;;;;;17.83;91.94;91999.53;5068189;28;20234;-81
2023/10/26 08:35:48;;;;;;;18.53;10.47;;;;;;;18.03;86.12;91998.56;5068694;28;20225;-81
2023/10/26 08:38:14;;;;;;;17.63;11.30;;;;;;;17.83;89.36;92018.78;5051241;28;20225;-83
2023/10/26 08:40:48;;;;;;;23.10;11.57;;;;;;;17.84;88.81;91998.44;5036960;28;20214;-82
2023/10/26 08:43:14;;;;;;;22.27;10.47;;;;;;;18.10;80.14;91985.53;5045698;28;20283;-80
2023/10/26 08:45:41;;;;;;;20.33;10.33;;;;;;;18.09;81.58;92002.47;5037309;28;20190;-82
2023/10/26 08:48:07;;;;;;;13.90;10.53;;;;;;;18.24;85.13;92009.69;5037630;28;20230;-80
2023/10/26 08:50:32;;;;;;;19.73;10.40;;;;;;;18.36;83.67;92010.38;5051314;28;20246;-80
2023/10/26 08:52:59;;;;;;;20.83;10.60;;;;;;;18.48;83.72;92004.25;5056508;28;20248;-79
2023/10/26 08:55:25;;;;;;;24.50;11.00;;;;;;;18.79;77.94;91993.66;5072293;28;20249;-81
2023/10/26 08:57:53;;;;;;;19.73;11.07;;;;;;;18.70;74.27;91993.88;5071282;28;20241;-81
2023/10/26 09:00:21;;;;;;;21.87;11.13;;;;;;;18.83;76.41;91987.34;5068431;28;20297;-81
2023/10/26 09:02:48;;;;;;;14.43;10.73;;;;;;;18.87;78.82;91982.94;5055895;28;20340;-79
2023/10/26 09:05:15;;;;;;;14.77;11.17;;;;;;;18.86;78.96;91977.97;5074684;28;20197;-82
2023/10/26 09:07:41;;;;;;;13.90;10.40;;;;;;;18.81;78.30;91994.09;5065612;28;20238;-82
2023/10/26 09:10:06;;;;;;;23.70;11.73;;;;;;;18.93;76.87;91965.69;5069912;28;20191;-82
2023/10/26 09:12:32;;;;;;;18.63;10.57;;;;;;;19.26;74.95;91991.72;5078055;28;20221;-81
2023/10/26 09:15:02;;;;;;;16.17;10.83;;;;;;;19.18;75.62;91982.09;5077542;28;20209;-83
2023/10/26 09:17:28;;;;;;;22.93;10.27;;;;;;;19.23;76.30;91981.03;5080224;28;20226;-82
2023/10/26 09:19:54;;;;;;;17.27;9.97;;;;;;;19.81;70.41;91978.13;5072596;28;20183;-82
2023/10/26 09:22:37;;;;;;;12.43;9.97;;;;;;;20.01;69.41;91990.22;5073426;28;20232;-82
2023/10/26 09:25:20;;;;;;;11.70;10.23;;;;;;;20.07;68.62;91983.53;5052365;28;20187;-83
2023/10/26 09:27:46;;;;;;;16.23;10.10;;;;;;;19.67;72.76;91969.91;5051476;28;20298;-83
2023/10/26 09:30:27;;;;;;;15.63;9.97;;;;;;;19.78;71.12;91948.91;5051220;28;20196;-85
2023/10/26 09:32:53;;;;;;;9.77;8.70;;;;;;;20.39;64.39;91982.22;5051011;28;20243;-79
2023/10/26 09:35:29;;;;;;;10.30;9.23;;;;;;;20.05;65.28;91984.97;5051732;28;20671;-81
2023/10/26 09:37:55;;;;;;;9.40;8.60;;;;;;;19.63;61.06;91950.50;5051688;28;20219;-80
2023/10/26 09:40:21;;;;;;;10.93;8.37;;;;;;;19.89;61.71;91966.53;5052145;28;20180;-85
2023/10/26 09:42:50;;;;;;;14.57;8.97;;;;;;;20.36;60.49;91958.28;5050760;28;20235;-80
2023/10/26 09:45:19;;;;;;;10.83;8.23;;;;;;;19.97;56.04;91973.47;5044105;28;20258;-78
2023/10/26 09:47:46;;;;;;;8.37;7.63;;;;;;;20.29;58.06;91984.69;5049320;28;20242;-85
2023/10/26 09:50:11;;;;;;;8.47;7.83;;;;;;;20.67;56.54;91974.72;5045709;28;20184;-84
2023/10/26 09:52:39;;;;;;;11.57;8.00;;;;;;;21.36;54.07;91968.19;5053330;28;20235;-89
2023/10/26 09:55:07;;;;;;;7.93;7.22;;;;;;;21.44;53.08;91955.75;5059908;28;20176;-86
2023/10/26 09:57:48;;;;;;;7.55;7.10;;;;;;;21.38;52.10;91959.84;5049606;28;20232;-83
2023/10/26 10:00:14;;;;;;;8.30;7.60;;;;;;;21.29;53.37;91933.56;5052331;28;20229;-88
2023/10/26 10:02:41;;;;;;;8.35;7.60;;;;;;;21.28;53.83;91961.25;5050707;28;20214;-89
2023/10/26 10:05:37;;;;;;;8.52;7.47;;;;;;;20.77;55.55;91946.84;5052247;28;20200;-85
2023/10/26 10:08:02;;;;;;;9.48;8.43;;;;;;;20.87;55.12;91940.94;5044739;28;20236;-88
2023/10/26 10:10:28;;;;;;;9.18;7.65;;;;;;;21.39;55.04;91917.00;5049869;28;20370;-85
2023/10/26 10:12:53;;;;;;;9.32;8.52;;;;;;;21.44;54.63;91924.66;5049589;28;20239;-89
2023/10/26 10:15:36;;;;;;;8.48;7.75;;;;;;;21.00;54.44;91933.53;5040811;28;20229;-76
2023/10/26 10:18:06;;;;;;;8.68;7.93;;;;;;;21.77;52.00;91935.31;5067864;28;20233;-79
2023/10/26 10:20:35;;;;;;;10.35;7.32;;;;;;;21.53;52.45;91921.72;5071392;28;20180;-77
2023/10/26 10:23:02;;;;;;;10.30;8.43;;;;;;;21.44;53.33;91937.16;5071285;28;20331;-77
2023/10/26 10:25:49;;;;;;;8.25;7.45;;;;;;;21.88;53.21;91938.09;5075137;28;20209;-79
2023/10/26 10:28:16;;;;;;;9.98;8.52;;;;;;;22.16;51.41;91919.78;5069682;28;20288;-78
2023/10/26 10:30:56;;;;;;;9.15;7.65;;;;;;;22.06;53.39;91923.84;5079576;28;20185;-78
2023/10/26 10:33:24;;;;;;;8.98;8.15;;;;;;;21.63;51.42;91921.84;5063757;28;20245;-74
2023/10/26 10:35:59;;;;;;;10.45;9.45;;;;;;;21.73;53.05;91918.53;5078415;28;20216;-77
2023/10/26 10:38:25;;;;;;;8.82;8.23;;;;;;;21.49;53.90;91910.28;5070722;28;20252;-78
2023/10/26 10:40:53;;;;;;;9.52;8.43;;;;;;;21.31;51.98;91926.00;5069001;28;20189;-79
2023/10/26 10:43:32;;;;;;;10.73;8.38;;;;;;;21.26;52.55;91888.38;5073653;28;20251;-81
2023/10/26 10:46:23;;;;;;;10.07;8.73;;;;;;;21.81;51.96;91903.47;5069062;28;20197;-79
2023/10/26 10:48:55;;;;;;;9.90;8.75;;;;;;;21.45;51.15;91859.00;5057485;28;20282;-87
2023/10/26 10:51:21;;;;;;;8.80;8.07;;;;;;;21.90;50.59;91898.59;5070284;28;20204;-77
2023/10/26 10:53:50;;;;;;;9.13;8.35;;;;;;;21.19;52.66;91888.28;5069956;28;20224;-78
2023/10/26 10:56:16;;;;;;;9.95;9.15;;;;;;;20.92;54.43;91870.88;5070282;28;20185;-79
2023/10/26 10:58:41;;;;;;;9.63;8.68;;;;;;;21.03;54.94;91879.75;5069630;28;20240;-78
2023/10/26 11:01:07;;;;;;;9.38;8.68;;;;;;;21.38;54.46;91880.19;5069816;28;20223;-77
2023/10/26 11:03:32;;;;;;;10.48;9.30;;;;;;;21.81;54.47;91871.56;5059699;28;20282;-76
2023/10/26 11:05:57;;;;;;;10.77;8.77;;;;;;;21.45;53.85;91874.94;5076838;28;20211;-78
2023/10/26 11:08:23;;;;;;;9.07;8.32;;;;;;;21.53;54.45;91892.50;5069643;28;20297;-73
2023/10/26 11:10:49;;;;;;;10.13;9.15;;;;;;;20.87;55.83;91897.69;5070420;28;20212;-76
2023/10/26 11:13:19;;;;;;;9.10;8.35;;;;;;;21.59;55.77;91891.03;5069773;28;20250;-80